createdAt,value
2023-02-13T00:00:37.894Z,12.60
2023-02-13T00:01:40.656Z,11.68
2023-02-13T00:02:44.195Z,11.82
2023-02-13T00:03:46.794Z,12.05
2023-02-13T00:04:49.420Z,12.57
2023-02-13T00:05:51.953Z,12.25
2023-02-13T00:06:54.468Z,11.43
2023-02-13T00:07:57.416Z,11.63
2023-02-13T00:09:00.135Z,11.15
2023-02-13T00:10:02.645Z,11.75
2023-02-13T00:11:05.384Z,13.63
2023-02-13T00:12:08.756Z,13.23
2023-02-13T00:13:11.629Z,12.40
2023-02-13T00:14:14.391Z,13.40
2023-02-13T00:15:17.274Z,12.95
2023-02-13T00:16:20.038Z,12.80
2023-02-13T00:17:23.039Z,13.25
2023-02-13T00:18:27.003Z,12.65
2023-02-13T00:19:30.010Z,12.88
2023-02-13T00:20:33.121Z,12.90
2023-02-13T00:21:36.252Z,12.93
2023-02-13T00:22:39.725Z,12.32
2023-02-13T00:23:42.853Z,12.57
2023-02-13T00:24:45.981Z,13.65
2023-02-13T00:25:49.093Z,14.23
2023-02-13T00:26:52.212Z,14.95
2023-02-13T00:27:55.456Z,14.07
2023-02-13T00:28:58.576Z,11.98
2023-02-13T00:30:01.697Z,11.90
2023-02-13T00:31:07.986Z,12.63
2023-02-13T00:32:11.604Z,12.05
2023-02-13T00:33:15.141Z,14.98
2023-02-13T00:34:18.260Z,12.27
2023-02-13T00:35:21.387Z,13.02
2023-02-13T00:36:25.106Z,12.65
2023-02-13T00:37:28.225Z,12.52
2023-02-13T00:38:32.066Z,12.90
2023-02-13T00:39:35.197Z,12.13
2023-02-13T00:40:38.429Z,12.98
2023-02-13T00:41:43.230Z,12.38
2023-02-13T00:42:46.472Z,12.48
2023-02-13T00:43:50.314Z,11.18
2023-02-13T00:44:54.280Z,12.80
2023-02-13T00:45:59.225Z,12.02
2023-02-13T00:47:02.827Z,11.73
2023-02-13T00:48:06.161Z,11.90
2023-02-13T00:49:09.290Z,12.90
2023-02-13T00:50:12.646Z,10.13
2023-02-13T00:51:16.245Z,11.65
2023-02-13T00:52:19.248Z,12.32
2023-02-13T00:53:23.690Z,12.30
2023-02-13T00:54:26.455Z,13.63
2023-02-13T00:55:29.216Z,12.88
2023-02-13T00:56:31.974Z,10.82
2023-02-13T00:57:34.740Z,13.15
2023-02-13T00:58:37.826Z,13.10
2023-02-13T00:59:40.499Z,11.93
2023-02-13T01:00:43.628Z,12.18
2023-02-13T01:01:46.490Z,13.18
2023-02-13T01:02:50.046Z,13.10
2023-02-13T01:03:54.145Z,12.50
2023-02-13T01:04:57.070Z,11.55
2023-02-13T01:06:00.139Z,11.98
2023-02-13T01:07:02.608Z,12.35
2023-02-13T01:08:05.689Z,11.13
2023-02-13T01:09:09.438Z,13.40
2023-02-13T01:10:13.325Z,12.23
2023-02-13T01:11:15.848Z,12.48
2023-02-13T01:12:19.808Z,12.52
2023-02-13T01:13:22.408Z,12.32
2023-02-13T01:14:25.086Z,13.07
2023-02-13T01:15:27.612Z,14.27
2023-02-13T01:16:30.249Z,12.25
2023-02-13T01:17:32.981Z,13.15
2023-02-13T01:18:35.665Z,13.10
2023-02-13T01:19:38.171Z,11.95
2023-02-13T01:20:41.540Z,12.45
2023-02-13T01:21:44.436Z,12.63
2023-02-13T01:22:47.028Z,11.98
2023-02-13T01:23:49.935Z,12.82
2023-02-13T01:24:55.694Z,12.68
2023-02-13T01:25:58.223Z,12.02
2023-02-13T01:27:02.556Z,12.30
2023-02-13T01:28:05.180Z,13.18
2023-02-13T01:29:07.821Z,13.05
2023-02-13T01:30:15.022Z,11.50
2023-02-13T01:31:17.738Z,13.63
2023-02-13T01:32:21.003Z,12.20
2023-02-13T01:33:25.495Z,10.77
2023-02-13T01:34:28.104Z,11.27
2023-02-13T01:35:30.666Z,12.73
2023-02-13T01:36:33.148Z,13.38
2023-02-13T01:37:35.783Z,13.60
2023-02-13T01:38:38.669Z,12.63
2023-02-13T01:39:41.197Z,13.25
2023-02-13T01:40:52.355Z,12.00
2023-02-13T01:41:54.985Z,11.90
2023-02-13T01:42:58.346Z,12.52
2023-02-13T01:44:01.954Z,11.82
2023-02-13T01:45:18.623Z,11.63
2023-02-13T01:46:38.015Z,12.23
2023-02-13T01:47:48.164Z,12.45
2023-02-13T01:48:54.393Z,11.98
2023-02-13T01:50:07.843Z,12.35
2023-02-13T01:51:18.387Z,11.65
2023-02-13T01:52:21.876Z,11.32
2023-02-13T01:53:43.709Z,11.75
2023-02-13T01:54:47.312Z,13.18
2023-02-13T01:55:58.717Z,11.15
2023-02-13T01:57:10.355Z,11.45
2023-02-13T01:58:18.633Z,11.45
2023-02-13T01:59:30.040Z,11.27
2023-02-13T02:00:33.882Z,10.93
2023-02-13T02:01:37.424Z,10.43
2023-02-13T02:02:45.879Z,11.13
2023-02-13T02:04:13.122Z,11.65
2023-02-13T02:05:18.164Z,11.63
2023-02-13T02:06:31.847Z,12.20
2023-02-13T02:07:35.929Z,12.35
2023-02-13T02:08:42.192Z,12.15
2023-02-13T02:09:56.216Z,11.48
2023-02-13T02:11:11.816Z,11.38
2023-02-13T02:12:57.419Z,11.00
2023-02-13T02:14:01.742Z,12.68
2023-02-13T02:15:09.906Z,12.02
2023-02-13T02:16:13.455Z,11.13
2023-02-13T02:17:17.472Z,11.88
2023-02-13T02:18:25.284Z,12.20
2023-02-13T02:19:53.837Z,12.32
2023-02-13T02:21:32.479Z,12.18
2023-02-13T02:23:05.849Z,11.52
2023-02-13T02:24:42.580Z,11.45
2023-02-13T02:26:16.165Z,11.48
2023-02-13T02:27:38.488Z,9.52
2023-02-13T02:29:08.137Z,10.98
2023-02-13T02:31:10.795Z,10.60
2023-02-13T02:32:41.856Z,10.55
2023-02-13T02:34:20.623Z,10.85
2023-02-13T02:36:06.469Z,10.88
2023-02-13T02:37:19.193Z,11.73
2023-02-13T02:38:44.996Z,11.65
2023-02-13T02:40:10.552Z,12.38
2023-02-13T02:41:44.636Z,10.38
2023-02-13T02:43:23.039Z,10.88
2023-02-13T02:44:51.013Z,10.82
2023-02-13T02:46:03.482Z,10.75
2023-02-13T02:47:47.761Z,11.32
2023-02-13T02:49:16.321Z,11.00
2023-02-13T02:50:36.605Z,11.65
2023-02-13T02:51:43.685Z,12.07
2023-02-13T02:53:05.408Z,11.13
2023-02-13T02:54:38.651Z,11.07
2023-02-13T02:56:09.857Z,10.55
2023-02-13T02:57:20.893Z,9.10
2023-02-13T02:58:57.976Z,9.23
2023-02-13T03:00:21.735Z,10.07
2023-02-13T03:01:46.940Z,9.93
2023-02-13T03:03:08.302Z,11.57
2023-02-13T03:04:43.756Z,11.73
2023-02-13T03:06:07.116Z,11.60
2023-02-13T03:07:14.067Z,10.52
2023-02-13T03:08:37.726Z,11.68
2023-02-13T03:10:04.723Z,10.68
2023-02-13T03:11:26.198Z,12.35
2023-02-13T03:13:17.922Z,10.35
2023-02-13T03:14:21.096Z,10.90
2023-02-13T03:15:27.563Z,12.45
2023-02-13T03:16:49.243Z,11.52
2023-02-13T03:18:10.728Z,12.38
2023-02-13T03:19:41.371Z,13.45
2023-02-13T03:21:11.102Z,12.10
2023-02-13T03:23:02.974Z,13.40
2023-02-13T03:24:19.294Z,11.73
2023-02-13T03:25:35.608Z,12.48
2023-02-13T03:26:50.696Z,11.63
2023-02-13T03:28:30.586Z,11.82
2023-02-13T03:30:05.610Z,10.75
2023-02-13T03:31:29.328Z,10.32
2023-02-13T03:32:43.778Z,11.98
2023-02-13T03:34:10.869Z,11.93
2023-02-13T03:35:54.816Z,11.90
2023-02-13T03:37:26.263Z,12.45
2023-02-13T03:38:32.293Z,11.88
2023-02-13T03:39:56.860Z,12.63
2023-02-13T03:41:20.258Z,10.75
2023-02-13T03:42:43.180Z,10.30
2023-02-13T03:43:50.275Z,11.20
2023-02-13T03:45:18.949Z,12.25
2023-02-13T03:46:23.864Z,12.00
2023-02-13T03:47:26.680Z,13.20
2023-02-13T03:48:57.349Z,13.18
2023-02-13T03:50:05.939Z,11.98
2023-02-13T03:51:10.908Z,11.68
2023-02-13T03:52:19.187Z,12.98
2023-02-13T03:53:22.914Z,12.50
2023-02-13T03:54:51.828Z,11.88
2023-02-13T03:56:15.114Z,13.35
2023-02-13T03:57:39.832Z,11.23
2023-02-13T03:59:08.157Z,13.18
2023-02-13T04:00:14.039Z,12.05
2023-02-13T04:01:19.497Z,13.13
2023-02-13T04:02:29.676Z,15.13
2023-02-13T04:03:41.298Z,13.15
2023-02-13T04:05:15.042Z,13.23
2023-02-13T04:06:35.048Z,11.80
2023-02-13T04:07:37.565Z,12.55
2023-02-13T04:08:40.331Z,14.82
2023-02-13T04:09:43.451Z,12.32
2023-02-13T04:11:06.969Z,11.68
2023-02-13T04:12:19.093Z,12.18
2023-02-13T04:13:35.540Z,11.13
2023-02-13T04:14:48.622Z,11.10
2023-02-13T04:16:01.106Z,11.75
2023-02-13T04:17:07.342Z,11.32
2023-02-13T04:18:39.876Z,11.43
2023-02-13T04:19:42.630Z,9.93
2023-02-13T04:20:45.394Z,10.77
2023-02-13T04:21:55.948Z,9.55
2023-02-13T04:23:06.043Z,10.63
2023-02-13T04:24:10.110Z,10.82
2023-02-13T04:25:15.885Z,11.88
2023-02-13T04:26:22.242Z,12.20
2023-02-13T04:27:28.375Z,13.52
2023-02-13T04:28:31.648Z,11.18
2023-02-13T04:29:34.846Z,12.25
2023-02-13T04:30:38.191Z,12.10
2023-02-13T04:31:41.403Z,12.27
2023-02-13T04:32:44.696Z,12.27
2023-02-13T04:33:47.809Z,11.70
2023-02-13T04:34:51.050Z,13.20
2023-02-13T04:35:54.173Z,13.00
2023-02-13T04:36:57.293Z,14.27
2023-02-13T04:38:00.536Z,13.68
2023-02-13T04:39:03.658Z,13.10
2023-02-13T04:40:07.260Z,13.05
2023-02-13T04:41:10.507Z,14.43
2023-02-13T04:42:13.624Z,12.68
2023-02-13T04:43:16.751Z,12.18
2023-02-13T04:44:19.866Z,12.55
2023-02-13T04:45:23.109Z,13.82
2023-02-13T04:46:26.492Z,11.88
2023-02-13T04:47:29.712Z,12.13
2023-02-13T04:48:33.079Z,12.00
2023-02-13T04:49:36.325Z,11.68
2023-02-13T04:50:39.681Z,11.07
2023-02-13T04:51:42.808Z,12.57
2023-02-13T04:52:46.162Z,11.60
2023-02-13T04:53:49.405Z,10.85
2023-02-13T04:54:52.524Z,11.93
2023-02-13T04:55:55.890Z,12.52
2023-02-13T04:56:59.142Z,12.85
2023-02-13T04:58:02.249Z,13.73
2023-02-13T04:59:05.136Z,13.73
2023-02-13T05:00:09.342Z,12.55
2023-02-13T05:01:13.835Z,11.02
2023-02-13T05:02:16.776Z,11.48
2023-02-13T05:03:19.780Z,12.15
2023-02-13T05:04:22.584Z,12.10
2023-02-13T05:05:25.304Z,11.93
2023-02-13T05:06:27.946Z,12.23
2023-02-13T05:07:30.597Z,14.68
2023-02-13T05:08:34.066Z,12.55
2023-02-13T05:09:36.646Z,15.05
2023-02-13T05:10:39.590Z,15.10
2023-02-13T05:11:45.159Z,15.25
2023-02-13T05:12:48.521Z,14.75
2023-02-13T05:13:51.295Z,13.30
2023-02-13T05:14:53.800Z,13.63
2023-02-13T05:15:56.429Z,14.23
2023-02-13T05:16:58.963Z,14.10
2023-02-13T05:18:01.369Z,14.25
2023-02-13T05:19:04.329Z,14.60
2023-02-13T05:20:07.686Z,14.30
2023-02-13T05:21:28.807Z,13.75
2023-02-13T05:22:50.089Z,13.82
2023-02-13T05:23:52.613Z,15.93
2023-02-13T05:24:55.377Z,14.43
2023-02-13T05:25:57.980Z,15.18
2023-02-13T05:27:00.542Z,15.18
2023-02-13T05:28:03.660Z,14.48
2023-02-13T05:29:22.948Z,14.80
2023-02-13T05:30:25.863Z,14.43
2023-02-13T05:31:28.603Z,15.45
2023-02-13T05:32:31.225Z,14.05
2023-02-13T05:33:33.922Z,15.25
2023-02-13T05:34:36.515Z,13.23
2023-02-13T05:35:39.054Z,14.55
2023-02-13T05:36:41.700Z,14.95
2023-02-13T05:37:44.336Z,15.73
2023-02-13T05:38:46.985Z,15.30
2023-02-13T05:39:49.637Z,15.27
2023-02-13T05:40:52.151Z,12.95
2023-02-13T05:41:54.789Z,13.13
2023-02-13T05:42:57.423Z,12.60
2023-02-13T05:44:00.084Z,13.80
2023-02-13T05:45:02.600Z,13.18
2023-02-13T05:46:10.556Z,15.40
2023-02-13T05:47:13.272Z,14.45
2023-02-13T05:48:15.795Z,14.73
2023-02-13T05:49:18.309Z,14.77
2023-02-13T05:50:20.827Z,15.82
2023-02-13T05:51:23.350Z,16.30
2023-02-13T05:52:25.993Z,15.88
2023-02-13T05:53:29.918Z,15.50
2023-02-13T05:54:32.482Z,14.88
2023-02-13T05:55:35.113Z,14.38
2023-02-13T05:56:37.629Z,15.10
2023-02-13T05:57:40.271Z,15.73
2023-02-13T05:58:42.789Z,15.38
2023-02-13T05:59:45.433Z,14.73
2023-02-13T06:00:48.313Z,15.43
2023-02-13T06:01:50.841Z,15.02
2023-02-13T06:02:53.650Z,17.05
2023-02-13T06:03:58.530Z,13.35
2023-02-13T06:05:01.637Z,13.73
2023-02-13T06:06:04.281Z,15.90
2023-02-13T06:07:06.805Z,14.27
2023-02-13T06:08:09.324Z,14.60
2023-02-13T06:09:12.214Z,14.20
2023-02-13T06:10:14.726Z,14.52
2023-02-13T06:11:17.248Z,14.77
2023-02-13T06:12:19.792Z,14.13
2023-02-13T06:13:22.311Z,14.60
2023-02-13T06:14:24.947Z,13.85
2023-02-13T06:15:27.581Z,14.82
2023-02-13T06:16:31.415Z,14.27
2023-02-13T06:17:33.944Z,15.13
2023-02-13T06:18:37.189Z,13.23
2023-02-13T06:19:39.942Z,13.15
2023-02-13T06:20:42.823Z,12.88
2023-02-13T06:21:45.583Z,15.77
2023-02-13T06:22:49.906Z,17.50
2023-02-13T06:23:52.667Z,14.68
2023-02-13T06:24:55.676Z,14.15
2023-02-13T06:26:11.752Z,14.95
2023-02-13T06:27:14.879Z,13.40
2023-02-13T06:28:18.019Z,14.95
2023-02-13T06:29:21.121Z,14.05
2023-02-13T06:30:24.418Z,14.05
2023-02-13T06:31:27.905Z,16.75
2023-02-13T06:32:31.087Z,14.55
2023-02-13T06:33:34.205Z,14.20
2023-02-13T06:34:37.333Z,13.32
2023-02-13T06:35:40.569Z,13.20
2023-02-13T06:36:43.813Z,12.20
2023-02-13T06:37:46.930Z,15.00
2023-02-13T06:38:50.053Z,15.07
2023-02-13T06:39:53.175Z,13.95
2023-02-13T06:41:02.320Z,15.23
2023-02-13T06:42:05.540Z,14.73
2023-02-13T06:43:08.661Z,13.90
2023-02-13T06:44:11.782Z,15.20
2023-02-13T06:45:15.026Z,14.85
2023-02-13T06:46:18.177Z,13.63
2023-02-13T06:47:21.266Z,14.40
2023-02-13T06:48:24.510Z,14.38
2023-02-13T06:49:27.634Z,14.77
2023-02-13T06:50:30.634Z,13.95
2023-02-13T06:51:33.756Z,14.15
2023-02-13T06:52:36.876Z,13.95
2023-02-13T06:53:40.358Z,11.90
2023-02-13T06:54:47.795Z,11.68
2023-02-13T06:55:55.964Z,14.68
2023-02-13T06:56:59.330Z,15.05
2023-02-13T06:58:02.326Z,15.10
2023-02-13T06:59:05.686Z,13.48
2023-02-13T07:00:12.889Z,16.30
2023-02-13T07:01:16.084Z,15.80
2023-02-13T07:02:19.256Z,14.07
2023-02-13T07:03:22.137Z,14.60
2023-02-13T07:04:25.256Z,12.80
2023-02-13T07:05:28.260Z,14.45
2023-02-13T07:06:33.005Z,12.70
2023-02-13T07:07:38.220Z,14.23
2023-02-13T07:08:40.920Z,14.02
2023-02-13T07:09:43.628Z,16.13
2023-02-13T07:10:46.512Z,12.85
2023-02-13T07:11:50.694Z,16.85
2023-02-13T07:13:05.322Z,14.52
2023-02-13T07:14:08.518Z,15.10
2023-02-13T07:15:11.173Z,16.02
2023-02-13T07:16:14.229Z,13.80
2023-02-13T07:17:16.875Z,13.85
2023-02-13T07:18:19.516Z,14.75
2023-02-13T07:19:22.201Z,13.68
2023-02-13T07:20:26.245Z,12.25
2023-02-13T07:21:28.926Z,14.55
2023-02-13T07:22:34.566Z,13.90
2023-02-13T07:23:37.210Z,14.23
2023-02-13T07:24:40.090Z,13.63
2023-02-13T07:25:43.061Z,14.07
2023-02-13T07:26:45.983Z,14.38
2023-02-13T07:27:48.576Z,14.73
2023-02-13T07:28:56.950Z,13.68
2023-02-13T07:30:08.889Z,13.77
2023-02-13T07:31:11.989Z,14.23
2023-02-13T07:32:14.981Z,13.05
2023-02-13T07:33:17.772Z,15.90
2023-02-13T07:34:20.291Z,14.38
2023-02-13T07:35:22.906Z,14.98
2023-02-13T07:36:25.336Z,13.77
2023-02-13T07:37:29.455Z,14.43
2023-02-13T07:38:33.140Z,14.10
2023-02-13T07:39:39.012Z,15.15
2023-02-13T07:40:41.665Z,13.30
2023-02-13T07:41:44.299Z,13.90
2023-02-13T07:42:46.940Z,13.30
2023-02-13T07:43:49.940Z,15.93
2023-02-13T07:44:52.702Z,14.68
2023-02-13T07:45:59.316Z,14.75
2023-02-13T07:47:01.979Z,14.80
2023-02-13T07:48:04.469Z,13.30
2023-02-13T07:49:06.985Z,15.40
2023-02-13T07:50:10.594Z,12.35
2023-02-13T07:51:13.109Z,11.50
2023-02-13T07:52:15.629Z,12.25
2023-02-13T07:53:18.288Z,11.63
2023-02-13T07:54:20.791Z,12.93
2023-02-13T07:55:23.550Z,12.32
2023-02-13T07:56:26.076Z,12.60
2023-02-13T07:57:28.717Z,11.27
2023-02-13T07:58:31.236Z,11.43
2023-02-13T07:59:33.761Z,12.70
2023-02-13T08:00:36.275Z,12.68
2023-02-13T08:01:39.092Z,14.20
2023-02-13T08:02:41.680Z,13.57
2023-02-13T08:03:47.736Z,12.82
2023-02-13T08:04:50.333Z,13.68
2023-02-13T08:05:52.859Z,13.57
2023-02-13T08:06:55.484Z,14.23
2023-02-13T08:07:58.252Z,12.93
2023-02-13T08:09:19.489Z,12.45
2023-02-13T08:10:40.617Z,12.60
2023-02-13T08:11:55.488Z,12.40
2023-02-13T08:12:58.619Z,10.82
2023-02-13T08:14:01.136Z,12.38
2023-02-13T08:15:04.374Z,11.65
2023-02-13T08:16:07.089Z,14.30
2023-02-13T08:17:10.263Z,14.30
2023-02-13T08:18:13.017Z,14.35
2023-02-13T08:19:15.782Z,12.13
2023-02-13T08:20:18.442Z,12.52
2023-02-13T08:21:21.068Z,13.68
2023-02-13T08:22:23.709Z,13.63
2023-02-13T08:23:26.986Z,12.43
2023-02-13T08:24:29.827Z,13.05
2023-02-13T08:25:33.435Z,11.60
2023-02-13T08:26:36.548Z,10.98
2023-02-13T08:27:39.672Z,11.70
2023-02-13T08:28:42.708Z,12.27
2023-02-13T08:29:45.824Z,10.65
2023-02-13T08:30:49.038Z,12.40
2023-02-13T08:31:52.200Z,13.90
2023-02-13T08:32:55.759Z,13.15
2023-02-13T08:33:59.120Z,13.82
2023-02-13T08:35:02.242Z,14.65
2023-02-13T08:36:05.744Z,12.45
2023-02-13T08:37:08.875Z,13.30
2023-02-13T08:38:11.969Z,14.02
2023-02-13T08:39:15.089Z,13.60
2023-02-13T08:40:18.338Z,15.02
2023-02-13T08:41:22.654Z,12.45
2023-02-13T08:42:25.895Z,13.68
2023-02-13T08:43:29.018Z,14.48
2023-02-13T08:44:32.259Z,14.07
2023-02-13T08:45:36.532Z,14.07
2023-02-13T08:46:39.748Z,13.00
2023-02-13T08:47:42.944Z,13.38
2023-02-13T08:48:46.199Z,13.18
2023-02-13T08:49:49.306Z,13.73
2023-02-13T08:50:52.672Z,12.93
2023-02-13T08:51:55.912Z,15.05
2023-02-13T08:52:59.520Z,14.82
2023-02-13T08:54:03.008Z,14.20
2023-02-13T08:55:06.598Z,15.02
2023-02-13T08:56:10.444Z,13.65
2023-02-13T08:57:13.681Z,15.05
2023-02-13T08:58:16.927Z,14.52
2023-02-13T08:59:20.043Z,14.98
2023-02-13T09:00:23.412Z,14.70
2023-02-13T09:01:26.577Z,14.35
2023-02-13T09:02:29.806Z,14.77
2023-02-13T09:03:32.899Z,14.10
2023-02-13T09:04:35.655Z,14.82
2023-02-13T09:05:38.773Z,14.60
2023-02-13T09:06:41.895Z,13.82
2023-02-13T09:07:44.552Z,14.18
2023-02-13T09:08:47.301Z,12.93
2023-02-13T09:09:49.819Z,14.43
2023-02-13T09:11:01.588Z,14.48
2023-02-13T09:12:04.583Z,14.10
2023-02-13T09:13:07.467Z,14.48
2023-02-13T09:14:10.047Z,15.27
2023-02-13T09:15:12.749Z,13.25
2023-02-13T09:16:16.495Z,17.02
2023-02-13T09:17:19.879Z,14.45
2023-02-13T09:18:22.357Z,14.90
2023-02-13T09:19:24.996Z,15.27
2023-02-13T09:20:27.652Z,13.82
2023-02-13T09:21:31.416Z,12.48
2023-02-13T09:22:33.925Z,13.20
2023-02-13T09:23:38.981Z,12.75
2023-02-13T09:24:41.573Z,13.40
2023-02-13T09:25:44.129Z,12.75
2023-02-13T09:26:46.649Z,13.38
2023-02-13T09:27:49.182Z,12.40
2023-02-13T09:28:51.950Z,12.05
2023-02-13T09:29:54.461Z,12.32
2023-02-13T09:30:57.318Z,14.32
2023-02-13T09:32:00.228Z,11.70
2023-02-13T09:33:02.745Z,12.63
2023-02-13T09:34:05.514Z,11.73
2023-02-13T09:35:08.255Z,12.93
2023-02-13T09:36:14.779Z,12.38
2023-02-13T09:37:17.619Z,10.80
2023-02-13T09:38:20.137Z,11.10
2023-02-13T09:39:22.669Z,13.10
2023-02-13T09:40:35.741Z,10.65
2023-02-13T09:41:43.074Z,11.75
2023-02-13T09:42:47.004Z,10.68
2023-02-13T09:43:59.422Z,12.43
2023-02-13T09:45:05.264Z,11.73
2023-02-13T09:46:18.049Z,10.27
2023-02-13T09:47:39.743Z,9.40
2023-02-13T09:48:46.190Z,11.80
2023-02-13T09:49:53.873Z,11.55
2023-02-13T09:50:57.711Z,11.73
2023-02-13T09:52:01.072Z,11.30
2023-02-13T09:53:04.789Z,9.82
2023-02-13T09:54:09.125Z,11.25
2023-02-13T09:55:27.231Z,10.50
2023-02-13T09:57:05.541Z,10.23
2023-02-13T09:58:26.755Z,10.35
2023-02-13T09:59:37.431Z,9.98
2023-02-13T10:00:46.434Z,9.35
2023-02-13T10:01:52.728Z,10.25
2023-02-13T10:02:58.215Z,10.07
2023-02-13T10:04:32.024Z,10.00
2023-02-13T10:05:46.818Z,9.98
2023-02-13T10:06:59.880Z,9.13
2023-02-13T10:08:46.080Z,9.90
2023-02-13T10:10:20.996Z,9.40
2023-02-13T10:11:32.287Z,9.77
2023-02-13T10:12:52.932Z,8.85
2023-02-13T10:14:10.514Z,10.38
2023-02-13T10:15:18.852Z,10.38
2023-02-13T10:16:25.000Z,12.27
2023-02-13T10:17:34.696Z,8.27
2023-02-13T10:18:49.705Z,9.95
2023-02-13T10:19:58.579Z,10.32
2023-02-13T10:21:04.225Z,10.30
2023-02-13T10:22:40.580Z,10.45
2023-02-13T10:23:52.473Z,9.35
2023-02-13T10:25:04.589Z,8.73
2023-02-13T10:26:22.234Z,9.30
2023-02-13T10:27:33.277Z,8.60
2023-02-13T10:28:42.327Z,10.15
2023-02-13T10:30:12.887Z,9.32
2023-02-13T10:31:23.575Z,9.32
2023-02-13T10:32:36.762Z,9.93
2023-02-13T10:34:03.288Z,8.80
2023-02-13T10:35:30.773Z,9.65
2023-02-13T10:36:42.187Z,9.50
2023-02-13T10:37:51.409Z,10.02
2023-02-13T10:39:06.933Z,9.48
2023-02-13T10:40:12.413Z,9.70
2023-02-13T10:41:25.739Z,9.55
2023-02-13T10:42:56.577Z,9.63
2023-02-13T10:44:13.024Z,9.88
2023-02-13T10:45:43.262Z,8.95
2023-02-13T10:47:13.386Z,8.83
2023-02-13T10:48:29.947Z,8.38
2023-02-13T10:50:03.670Z,8.98
2023-02-13T10:51:13.753Z,9.65
2023-02-13T10:52:32.473Z,8.55
2023-02-13T10:53:45.195Z,8.88
2023-02-13T10:55:05.127Z,9.27
2023-02-13T10:56:24.326Z,8.63
2023-02-13T10:57:42.441Z,9.73
2023-02-13T10:59:07.048Z,10.18
2023-02-13T11:00:23.613Z,10.10
2023-02-13T11:01:49.953Z,10.98
2023-02-13T11:02:56.368Z,9.90
2023-02-13T11:04:12.632Z,10.18
2023-02-13T11:05:21.453Z,10.45
2023-02-13T11:06:24.573Z,10.57
2023-02-13T11:07:29.014Z,9.60
2023-02-13T11:08:44.257Z,10.15
2023-02-13T11:09:50.137Z,10.30
2023-02-13T11:10:53.501Z,9.52
2023-02-13T11:11:56.261Z,10.05
2023-02-13T11:13:16.063Z,9.73
2023-02-13T11:14:21.463Z,9.73
2023-02-13T11:15:33.278Z,10.27
2023-02-13T11:16:59.081Z,9.20
2023-02-13T11:18:22.435Z,9.25
2023-02-13T11:19:31.074Z,8.75
2023-02-13T11:20:38.398Z,8.65
2023-02-13T11:21:41.084Z,9.20
2023-02-13T11:22:43.844Z,9.75
2023-02-13T11:23:51.645Z,10.70
2023-02-13T11:24:58.841Z,10.18
2023-02-13T11:26:12.121Z,8.95
2023-02-13T11:27:14.928Z,9.45
2023-02-13T11:28:21.343Z,9.43
2023-02-13T11:29:29.166Z,10.02
2023-02-13T11:30:36.137Z,9.27
2023-02-13T11:31:38.798Z,9.85
2023-02-13T11:32:41.327Z,9.10
2023-02-13T11:33:43.966Z,9.05
2023-02-13T11:34:47.570Z,9.00
2023-02-13T11:35:50.207Z,9.27
2023-02-13T11:36:54.779Z,9.65
2023-02-13T11:38:24.315Z,8.32
2023-02-13T11:39:27.263Z,9.85
2023-02-13T11:40:31.860Z,9.23
2023-02-13T11:41:42.180Z,9.15
2023-02-13T11:42:47.819Z,9.88
2023-02-13T11:44:01.193Z,9.15
2023-02-13T11:45:23.709Z,8.35
2023-02-13T11:46:28.512Z,8.18
2023-02-13T11:47:32.936Z,9.07
2023-02-13T11:48:35.825Z,8.98
2023-02-13T11:49:39.605Z,8.07
2023-02-13T11:50:42.666Z,9.30
2023-02-13T11:51:51.427Z,9.35
2023-02-13T11:52:55.980Z,9.90
2023-02-13T11:54:01.268Z,8.93
2023-02-13T11:55:23.956Z,9.05
2023-02-13T11:56:26.464Z,9.57
2023-02-13T11:57:37.058Z,9.45
2023-02-13T11:58:40.894Z,10.05
2023-02-13T11:59:45.084Z,9.38
2023-02-13T12:00:47.711Z,9.23
2023-02-13T12:02:15.097Z,9.90
2023-02-13T12:03:20.482Z,8.25
2023-02-13T12:04:23.231Z,10.38
2023-02-13T12:05:27.915Z,9.77
2023-02-13T12:06:31.520Z,10.25
2023-02-13T12:07:34.276Z,10.05
2023-02-13T12:08:39.128Z,10.05
2023-02-13T12:09:44.239Z,10.98
2023-02-13T12:10:46.768Z,9.60
2023-02-13T12:11:53.613Z,9.90
2023-02-13T12:13:13.167Z,10.75
2023-02-13T12:14:29.490Z,11.38
2023-02-13T12:15:36.930Z,11.43
2023-02-13T12:16:45.529Z,11.45
2023-02-13T12:18:06.095Z,11.43
2023-02-13T12:19:15.816Z,12.60
2023-02-13T12:20:18.578Z,12.85
2023-02-13T12:21:26.860Z,13.27
2023-02-13T12:22:35.401Z,14.00
2023-02-13T12:23:49.788Z,13.68
2023-02-13T12:25:10.067Z,13.02
2023-02-13T12:26:31.791Z,13.13
2023-02-13T12:28:00.773Z,12.35
2023-02-13T12:29:33.625Z,13.43
2023-02-13T12:31:25.160Z,12.23
2023-02-13T12:33:00.961Z,12.50
2023-02-13T12:34:28.557Z,10.38
2023-02-13T12:36:00.000Z,10.93
2023-02-13T12:37:15.005Z,11.85
2023-02-13T12:38:50.165Z,12.73
2023-02-13T12:40:30.607Z,11.07
2023-02-13T12:42:03.493Z,9.87
2023-02-13T12:43:43.693Z,9.95
2023-02-13T12:45:09.859Z,11.07
2023-02-13T12:46:31.466Z,9.73
2023-02-13T12:48:02.666Z,9.02
2023-02-13T12:50:39.027Z,9.35
2023-02-13T12:52:05.186Z,10.20
2023-02-13T12:53:29.713Z,10.65
2023-02-13T12:54:45.517Z,9.40
2023-02-13T12:56:10.360Z,10.88
2023-02-13T12:57:13.715Z,9.90
2023-02-13T12:58:23.204Z,9.75
2023-02-13T12:59:47.678Z,10.63
2023-02-13T13:01:15.328Z,11.40
2023-02-13T13:02:55.853Z,10.45
2023-02-13T13:04:27.172Z,10.53
2023-02-13T13:05:50.640Z,9.73
2023-02-13T13:07:06.417Z,10.65
2023-02-13T13:08:50.935Z,11.23
2023-02-13T13:10:36.058Z,9.73
2023-02-13T13:12:14.223Z,9.52
2023-02-13T13:13:43.030Z,9.73
2023-02-13T13:14:59.714Z,9.68
2023-02-13T13:16:27.804Z,10.73
2023-02-13T13:17:47.351Z,9.85
2023-02-13T13:19:15.725Z,10.43
2023-02-13T13:20:52.447Z,9.75
2023-02-13T13:22:12.681Z,10.45
2023-02-13T13:23:41.889Z,9.63
2023-02-13T13:25:15.489Z,9.40
2023-02-13T13:26:47.248Z,10.75
2023-02-13T13:28:12.940Z,9.38
2023-02-13T13:29:39.132Z,11.80
2023-02-13T13:30:43.448Z,10.15
2023-02-13T13:31:56.367Z,10.48
2023-02-13T13:33:26.062Z,10.27
2023-02-13T13:34:31.332Z,10.77
2023-02-13T13:35:36.132Z,10.40
2023-02-13T13:36:49.312Z,10.82
2023-02-13T13:38:04.093Z,10.63
2023-02-13T13:39:32.541Z,9.52
2023-02-13T13:40:42.975Z,9.68
2023-02-13T13:42:17.181Z,10.50
2023-02-13T13:43:34.101Z,10.48
2023-02-13T13:44:53.297Z,8.48
2023-02-13T13:46:44.786Z,9.73
2023-02-13T13:49:25.121Z,10.48
2023-02-13T13:50:35.539Z,9.90
2023-02-13T13:51:38.555Z,9.88
2023-02-13T13:53:06.744Z,10.32
2023-02-13T13:54:09.143Z,10.70
2023-02-13T13:55:46.945Z,10.73
2023-02-13T13:57:02.238Z,8.63
2023-02-13T13:58:04.830Z,10.43
2023-02-13T13:59:17.785Z,10.98
2023-02-13T14:00:27.512Z,9.65
2023-02-13T14:01:31.664Z,10.02
2023-02-13T14:03:20.791Z,9.77
2023-02-13T14:04:32.453Z,10.68
2023-02-13T14:06:03.159Z,10.65
2023-02-13T14:07:05.568Z,11.75
2023-02-13T14:08:52.739Z,9.35
2023-02-13T14:09:55.242Z,11.60
2023-02-13T14:10:57.866Z,12.30
2023-02-13T14:12:29.439Z,10.75
2023-02-13T14:13:40.017Z,11.75
2023-02-13T14:14:46.006Z,9.82
2023-02-13T14:15:50.965Z,11.07
2023-02-13T14:16:55.125Z,10.45
2023-02-13T14:17:59.086Z,11.32
2023-02-13T14:19:01.985Z,10.45
2023-02-13T14:20:34.727Z,10.43
2023-02-13T14:21:37.370Z,11.35
2023-02-13T14:22:40.907Z,11.38
2023-02-13T14:23:45.668Z,11.77
2023-02-13T14:24:51.654Z,11.95
2023-02-13T14:26:16.155Z,11.15
2023-02-13T14:27:32.111Z,10.10
2023-02-13T14:28:34.981Z,10.43
2023-02-13T14:29:37.885Z,11.45
2023-02-13T14:30:40.759Z,11.43
2023-02-13T14:32:13.373Z,11.05
2023-02-13T14:33:31.988Z,11.38
2023-02-13T14:34:39.800Z,10.27
2023-02-13T14:35:42.816Z,10.27
2023-02-13T14:37:11.353Z,11.88
2023-02-13T14:38:25.881Z,10.30
2023-02-13T14:39:32.596Z,11.80
2023-02-13T14:40:52.281Z,11.05
2023-02-13T14:41:55.548Z,10.13
2023-02-13T14:43:00.322Z,10.40
2023-02-13T14:44:03.566Z,10.88
2023-02-13T14:45:17.259Z,10.15
2023-02-13T14:46:25.114Z,13.23
2023-02-13T14:47:36.571Z,10.80
2023-02-13T14:48:57.220Z,12.30
2023-02-13T14:50:04.061Z,12.43
2023-02-13T14:51:14.740Z,11.35
2023-02-13T14:52:27.943Z,10.80
2023-02-13T14:53:43.910Z,10.93
2023-02-13T14:54:51.477Z,11.65
2023-02-13T14:56:12.836Z,11.18
2023-02-13T14:57:18.712Z,10.63
2023-02-13T14:58:24.593Z,11.38
2023-02-13T14:59:35.635Z,12.18
2023-02-13T15:01:04.808Z,11.05
2023-02-13T15:02:22.084Z,11.70
2023-02-13T15:03:32.169Z,11.43
2023-02-13T15:04:43.249Z,11.23
2023-02-13T15:05:52.816Z,11.77
2023-02-13T15:06:59.416Z,11.05
2023-02-13T15:08:16.934Z,12.30